createdAt,value
2018-12-20T00:01:26.855Z,93.76
2018-12-20T00:06:30.734Z,93.63
2018-12-20T00:11:34.703Z,93.82
2018-12-20T00:16:38.588Z,93.53
2018-12-20T00:21:42.506Z,93.99
2018-12-20T00:26:46.321Z,93.90
2018-12-20T00:31:50.173Z,94.37
2018-12-20T00:36:53.922Z,94.29
2018-12-20T00:41:58.289Z,93.78
2018-12-20T00:47:02.360Z,94.51
2018-12-20T00:52:06.996Z,94.08
2018-12-20T00:57:11.815Z,94.16
2018-12-20T01:02:15.958Z,94.23
2018-12-20T01:07:20.784Z,93.96
2018-12-20T01:12:24.661Z,93.84
2018-12-20T01:17:32.878Z,93.51
2018-12-20T01:22:36.904Z,93.88
2018-12-20T01:27:40.695Z,93.56
2018-12-20T01:32:44.468Z,93.40
2018-12-20T01:37:48.589Z,93.70
2018-12-20T01:42:52.739Z,93.68
2018-12-20T01:47:56.671Z,93.39
2018-12-20T01:53:00.459Z,92.62
2018-12-20T01:58:04.587Z,93.88
2018-12-20T02:03:08.779Z,92.96
2018-12-20T02:08:12.763Z,93.01
2018-12-20T02:13:16.948Z,92.56
2018-12-20T02:18:21.272Z,92.93
2018-12-20T02:23:25.570Z,93.33
2018-12-20T02:28:29.641Z,93.15
2018-12-20T02:33:33.466Z,92.47
2018-12-20T02:38:37.565Z,93.17
2018-12-20T02:43:41.556Z,92.15
2018-12-20T02:48:47.555Z,91.47
2018-12-20T02:53:51.611Z,90.89
2018-12-20T02:58:55.671Z,91.46
2018-12-20T03:03:59.491Z,91.63
2018-12-20T03:09:06.764Z,91.28
2018-12-20T03:14:10.810Z,91.34
2018-12-20T03:19:14.709Z,91.80
2018-12-20T03:24:18.434Z,93.04
2018-12-20T03:29:22.236Z,92.71
2018-12-20T03:34:27.446Z,92.83
2018-12-20T03:39:31.657Z,92.26
2018-12-20T03:44:35.881Z,92.50
2018-12-20T03:49:40.252Z,92.11
2018-12-20T03:54:44.512Z,92.75
2018-12-20T03:59:48.504Z,92.59
2018-12-20T04:04:52.413Z,92.65
2018-12-20T04:09:56.325Z,92.45
2018-12-20T04:15:00.366Z,91.83
2018-12-20T04:20:04.763Z,91.88
2018-12-20T04:25:08.587Z,91.45
2018-12-20T04:30:12.528Z,91.75
2018-12-20T04:35:16.404Z,91.15
2018-12-20T04:40:20.762Z,91.05
2018-12-20T04:45:25.216Z,91.48
2018-12-20T04:50:29.255Z,92.32
2018-12-20T04:55:33.012Z,92.62
2018-12-20T05:00:37.004Z,93.07
2018-12-20T05:05:41.054Z,93.45
2018-12-20T05:10:44.873Z,93.04
2018-12-20T05:15:56.078Z,92.72
2018-12-20T05:20:55.114Z,92.41
2018-12-20T05:25:58.822Z,92.23
2018-12-20T05:31:02.991Z,90.70
2018-12-20T05:36:06.771Z,90.71
2018-12-20T05:41:10.907Z,91.04
2018-12-20T05:46:14.959Z,90.98
2018-12-20T05:51:18.919Z,90.46
2018-12-20T05:56:23.056Z,90.12
2018-12-20T06:01:27.222Z,90.28
2018-12-20T06:06:31.933Z,89.93
2018-12-20T06:11:35.724Z,89.41
2018-12-20T06:16:39.685Z,88.58
2018-12-20T06:21:43.593Z,88.68
2018-12-20T06:26:47.476Z,87.21
2018-12-20T06:31:51.238Z,86.12
2018-12-20T06:36:55.073Z,85.26
2018-12-20T06:42:00.057Z,86.57
2018-12-20T06:47:04.065Z,86.70
2018-12-20T06:52:08.030Z,86.24
2018-12-20T06:57:11.745Z,85.32
2018-12-20T07:02:15.736Z,84.64
2018-12-20T07:07:19.501Z,82.53
2018-12-20T07:12:23.505Z,82.84
2018-12-20T07:17:27.576Z,83.01
2018-12-20T07:22:31.548Z,83.10
2018-12-20T07:27:36.267Z,83.56
2018-12-20T07:32:40.306Z,81.56
2018-12-20T07:37:44.592Z,82.21
2018-12-20T07:42:48.426Z,80.99
2018-12-20T07:47:52.354Z,84.16
2018-12-20T07:52:56.339Z,81.02
2018-12-20T07:58:00.308Z,80.31
2018-12-20T08:03:04.886Z,79.56
2018-12-20T08:08:08.751Z,79.83
2018-12-20T08:13:12.586Z,79.13
2018-12-20T08:18:16.642Z,84.12
2018-12-20T08:23:20.481Z,85.92
2018-12-20T08:28:24.216Z,86.08
2018-12-20T08:33:28.021Z,85.51
2018-12-20T08:38:31.890Z,85.60
2018-12-20T08:43:35.765Z,85.68
2018-12-20T08:48:39.745Z,86.42
2018-12-20T08:53:43.884Z,87.21
2018-12-20T08:58:47.800Z,86.37
2018-12-20T09:03:51.765Z,84.74
2018-12-20T09:08:56.085Z,83.78
2018-12-20T09:14:00.211Z,83.44
2018-12-20T09:19:04.165Z,84.76
2018-12-20T09:24:08.177Z,82.51
2018-12-20T09:29:12.071Z,83.44
2018-12-20T09:34:15.905Z,83.00
2018-12-20T09:39:21.938Z,82.93
2018-12-20T09:44:25.854Z,82.76
2018-12-20T09:49:29.802Z,82.95
2018-12-20T09:54:33.775Z,82.86
2018-12-20T09:59:37.796Z,82.52
2018-12-20T10:04:41.692Z,81.76
2018-12-20T10:09:45.545Z,81.06
2018-12-20T10:14:49.279Z,82.02
2018-12-20T10:19:53.273Z,80.82
2018-12-20T10:24:57.406Z,78.89
2018-12-20T10:30:01.376Z,78.96
2018-12-20T10:35:05.543Z,79.32
2018-12-20T10:40:09.279Z,79.22
2018-12-20T10:45:13.053Z,79.17
2018-12-20T10:50:16.999Z,79.19
2018-12-20T10:55:20.951Z,79.25
2018-12-20T11:00:24.891Z,79.75
2018-12-20T11:05:34.369Z,80.48
2018-12-20T11:10:38.533Z,79.41
2018-12-20T11:15:42.377Z,79.11
2018-12-20T11:20:46.181Z,78.46
2018-12-20T11:25:50.586Z,78.62
2018-12-20T11:30:54.392Z,80.18
2018-12-20T11:35:58.572Z,78.48
2018-12-20T11:41:02.796Z,77.76
2018-12-20T11:46:07.027Z,76.93
2018-12-20T11:51:11.075Z,77.40
2018-12-20T11:56:14.933Z,76.47
2018-12-20T12:01:18.698Z,76.50
2018-12-20T12:06:22.728Z,75.57
2018-12-20T12:11:26.987Z,75.99
2018-12-20T12:16:30.960Z,75.68
2018-12-20T12:21:35.259Z,75.77
2018-12-20T12:26:39.025Z,75.64
2018-12-20T12:31:43.818Z,75.48
2018-12-20T12:36:47.711Z,75.40
2018-12-20T12:41:51.572Z,75.42
2018-12-20T12:46:55.557Z,75.25
2018-12-20T12:51:59.548Z,75.92
2018-12-20T12:57:03.580Z,75.52
2018-12-20T13:02:08.578Z,75.99
2018-12-20T13:07:12.318Z,76.94
2018-12-20T13:12:16.456Z,76.39
2018-12-20T13:17:20.812Z,77.03
2018-12-20T13:22:24.716Z,77.40
2018-12-20T13:27:28.645Z,77.49
2018-12-20T13:32:32.423Z,77.61
2018-12-20T13:37:36.736Z,77.29
2018-12-20T13:42:40.719Z,78.30
2018-12-20T13:47:44.446Z,79.03
2018-12-20T13:52:48.527Z,79.21
2018-12-20T13:57:52.434Z,79.57
2018-12-20T14:02:56.097Z,80.72
2018-12-20T14:08:00.157Z,80.95
2018-12-20T14:13:05.827Z,81.58
2018-12-20T14:18:10.473Z,82.02
2018-12-20T14:23:14.868Z,82.43
2018-12-20T14:28:19.594Z,83.42
2018-12-20T14:33:24.035Z,82.90
2018-12-20T14:38:28.361Z,83.83
2018-12-20T14:43:39.726Z,84.55
2018-12-20T14:48:46.467Z,84.39
2018-12-20T14:53:52.296Z,85.38
2018-12-20T14:58:57.625Z,86.17
2018-12-20T15:04:08.479Z,86.28
2018-12-20T15:09:12.711Z,86.97
2018-12-20T15:14:17.042Z,86.33
2018-12-20T15:19:21.277Z,86.36
2018-12-20T15:24:25.657Z,87.49
2018-12-20T15:29:30.758Z,87.72
2018-12-20T15:34:34.975Z,87.13
2018-12-20T15:39:39.272Z,87.96
2018-12-20T15:44:43.860Z,88.08
2018-12-20T15:49:48.219Z,88.00
2018-12-20T15:54:52.687Z,88.39
2018-12-20T15:59:57.080Z,88.90
2018-12-20T16:05:01.180Z,89.14
2018-12-20T16:10:07.400Z,89.36
2018-12-20T16:15:11.334Z,90.52
2018-12-20T16:20:16.047Z,90.41
2018-12-20T16:25:21.854Z,91.54
2018-12-20T16:30:25.847Z,91.65
2018-12-20T16:35:29.701Z,91.32
2018-12-20T16:40:33.573Z,91.13
2018-12-20T16:45:37.767Z,91.71
2018-12-20T16:50:41.749Z,92.66
2018-12-20T16:55:45.781Z,92.71
2018-12-20T17:00:49.640Z,92.54
2018-12-20T17:05:53.629Z,92.70
2018-12-20T17:10:57.921Z,93.20
2018-12-20T17:16:01.894Z,93.04
2018-12-20T17:21:05.688Z,92.75
2018-12-20T17:26:09.669Z,92.86
2018-12-20T17:31:13.897Z,92.79
2018-12-20T17:36:17.812Z,92.97
2018-12-20T17:41:22.123Z,93.50
2018-12-20T17:46:27.016Z,93.94
2018-12-20T17:51:30.831Z,93.15
2018-12-20T17:56:35.867Z,93.44
2018-12-20T18:01:40.285Z,93.84
2018-12-20T18:06:44.723Z,93.46
2018-12-20T18:11:48.505Z,94.00
2018-12-20T18:16:52.400Z,94.43
2018-12-20T18:21:57.595Z,94.68
2018-12-20T18:27:01.670Z,94.30
2018-12-20T18:32:06.503Z,94.79
2018-12-20T18:37:11.344Z,94.58
2018-12-20T18:42:15.229Z,93.61
2018-12-20T18:47:19.267Z,94.13
2018-12-20T18:52:23.020Z,94.58
2018-12-20T18:57:27.306Z,94.16
2018-12-20T19:02:32.011Z,94.36
2018-12-20T19:07:37.066Z,93.40
2018-12-20T19:12:40.994Z,93.48
2018-12-20T19:17:46.005Z,93.77
2018-12-20T19:22:50.322Z,94.11
2018-12-20T19:27:54.368Z,94.44
2018-12-20T19:32:58.443Z,94.69
2018-12-20T19:38:02.345Z,94.36
2018-12-20T19:43:06.420Z,94.52
2018-12-20T19:48:11.517Z,94.30
2018-12-20T19:53:15.307Z,94.06
2018-12-20T19:58:19.878Z,93.97
2018-12-20T20:03:23.842Z,94.02
2018-12-20T20:08:29.032Z,94.18
2018-12-20T20:13:33.048Z,93.80
2018-12-20T20:18:36.997Z,93.99
2018-12-20T20:23:40.858Z,94.29
2018-12-20T20:28:44.989Z,93.74
2018-12-20T20:33:49.569Z,94.02
2018-12-20T20:39:01.746Z,94.26
2018-12-20T20:43:59.640Z,94.17
2018-12-20T20:49:03.515Z,93.76
2018-12-20T20:54:07.375Z,93.94
2018-12-20T20:59:12.347Z,94.27
2018-12-20T21:04:16.052Z,93.68
2018-12-20T21:09:19.972Z,93.63
2018-12-20T21:14:25.980Z,93.24
2018-12-20T21:19:29.936Z,92.77
2018-12-20T21:24:34.041Z,93.89
2018-12-20T21:29:38.050Z,93.62
2018-12-20T21:34:43.045Z,93.67
2018-12-20T21:39:46.948Z,93.62
2018-12-20T21:44:51.954Z,93.93
2018-12-20T21:49:55.902Z,94.36
2018-12-20T21:54:59.690Z,94.13
2018-12-20T22:00:09.421Z,94.26
2018-12-20T22:05:13.576Z,93.98
2018-12-20T22:10:17.407Z,94.06
2018-12-20T22:15:21.147Z,93.36
2018-12-20T22:20:25.017Z,93.55
2018-12-20T22:25:29.987Z,93.13
2018-12-20T22:30:33.881Z,92.66
2018-12-20T22:35:37.760Z,93.75
2018-12-20T22:40:42.501Z,93.50
2018-12-20T22:45:46.377Z,93.56
2018-12-20T22:50:55.852Z,93.70
2018-12-20T22:55:56.291Z,93.77
2018-12-20T23:01:03.123Z,93.95
2018-12-20T23:06:07.152Z,94.02
2018-12-20T23:11:10.940Z,93.73
2018-12-20T23:16:14.761Z,94.62
2018-12-20T23:21:19.781Z,93.88
2018-12-20T23:26:23.684Z,93.26
2018-12-20T23:31:27.560Z,93.37
2018-12-20T23:36:31.249Z,93.19
2018-12-20T23:41:35.262Z,93.43
2018-12-20T23:46:38.978Z,93.62
2018-12-20T23:51:45.441Z,93.17
2018-12-20T23:56:48.656Z,91.51
